createdAt,value
2023-05-07T00:00:10.480Z,80.00
2023-05-07T00:02:38.750Z,80.29
2023-05-07T00:05:16.378Z,80.09
2023-05-07T00:07:43.462Z,79.94
2023-05-07T00:10:12.009Z,79.76
2023-05-07T00:12:39.263Z,80.10
2023-05-07T00:15:07.146Z,79.92
2023-05-07T00:17:34.669Z,79.64
2023-05-07T00:20:01.531Z,79.98
2023-05-07T00:22:28.448Z,80.17
2023-05-07T00:24:55.821Z,80.08
2023-05-07T00:27:23.504Z,79.99
2023-05-07T00:29:50.828Z,79.85
2023-05-07T00:32:18.044Z,80.10
2023-05-07T00:34:45.341Z,79.95
2023-05-07T00:37:13.260Z,80.16
2023-05-07T00:39:40.451Z,79.90
2023-05-07T00:42:07.358Z,80.39
2023-05-07T00:44:34.298Z,79.99
2023-05-07T00:47:03.392Z,80.28
2023-05-07T00:49:42.363Z,80.22
2023-05-07T00:52:11.121Z,79.96
2023-05-07T00:54:38.408Z,80.28
2023-05-07T00:57:05.503Z,80.08
2023-05-07T00:59:33.568Z,80.12
2023-05-07T01:02:00.779Z,79.91
2023-05-07T01:04:28.207Z,79.97
2023-05-07T01:06:57.471Z,80.18
2023-05-07T01:09:26.619Z,79.97
2023-05-07T01:11:53.761Z,80.13
2023-05-07T01:14:21.792Z,79.87
2023-05-07T01:16:49.655Z,79.78
2023-05-07T01:19:19.613Z,79.86
2023-05-07T01:21:48.449Z,79.86
2023-05-07T01:24:17.970Z,79.69
2023-05-07T01:26:45.942Z,79.96
2023-05-07T01:29:15.348Z,79.83
2023-05-07T01:31:42.950Z,79.90
2023-05-07T01:34:12.367Z,79.99
2023-05-07T01:36:40.612Z,79.63
2023-05-07T01:39:07.827Z,80.06
2023-05-07T01:41:35.318Z,79.61
2023-05-07T01:44:02.864Z,80.01
2023-05-07T01:46:30.150Z,79.88
2023-05-07T01:48:57.143Z,79.91
2023-05-07T01:51:24.129Z,79.89
2023-05-07T01:53:52.255Z,79.82
2023-05-07T01:56:20.429Z,79.79
2023-05-07T01:58:48.041Z,79.64
2023-05-07T02:01:15.329Z,79.62
2023-05-07T02:03:43.536Z,79.40
2023-05-07T02:06:18.658Z,79.94
2023-05-07T02:08:45.617Z,79.35
2023-05-07T02:11:13.976Z,79.54
2023-05-07T02:13:41.061Z,79.61
2023-05-07T02:16:08.266Z,79.23
2023-05-07T02:18:37.041Z,79.11
2023-05-07T02:21:04.210Z,79.39
2023-05-07T02:23:31.177Z,79.05
2023-05-07T02:25:58.262Z,79.18
2023-05-07T02:28:25.547Z,79.28
2023-05-07T02:30:59.813Z,79.09
2023-05-07T02:33:27.729Z,79.26
2023-05-07T02:35:54.633Z,78.98
2023-05-07T02:38:21.691Z,79.04
2023-05-07T02:40:49.255Z,78.77
2023-05-07T02:43:17.210Z,78.85
2023-05-07T02:45:47.215Z,78.80
2023-05-07T02:48:15.315Z,78.38
2023-05-07T02:50:42.353Z,78.59
2023-05-07T02:53:09.621Z,78.57
2023-05-07T02:55:36.503Z,78.66
2023-05-07T02:58:04.163Z,78.60
2023-05-07T03:00:34.291Z,78.55
2023-05-07T03:03:12.194Z,78.89
2023-05-07T03:05:39.226Z,78.37
2023-05-07T03:08:06.410Z,78.49
2023-05-07T03:10:33.845Z,78.70
2023-05-07T03:13:01.235Z,78.52
2023-05-07T03:15:28.517Z,78.73
2023-05-07T03:17:55.700Z,78.64
2023-05-07T03:20:23.250Z,78.88
2023-05-07T03:22:50.344Z,78.52
2023-05-07T03:25:17.575Z,78.69
2023-05-07T03:27:44.934Z,78.83
2023-05-07T03:30:12.899Z,78.55
2023-05-07T03:32:40.096Z,78.37
2023-05-07T03:35:10.708Z,78.63
2023-05-07T03:37:37.623Z,78.20
2023-05-07T03:40:05.667Z,78.41
2023-05-07T03:42:41.050Z,78.27
2023-05-07T03:45:09.124Z,78.35
2023-05-07T03:47:37.225Z,78.48
2023-05-07T03:50:04.685Z,78.35
2023-05-07T03:52:32.093Z,78.26
2023-05-07T03:55:02.021Z,78.02
2023-05-07T03:57:30.829Z,78.38
2023-05-07T03:59:59.753Z,78.52
2023-05-07T04:02:29.183Z,78.33
2023-05-07T04:04:56.719Z,78.30
2023-05-07T04:07:23.791Z,78.26
2023-05-07T04:09:51.957Z,78.39
2023-05-07T04:12:19.184Z,78.24
2023-05-07T04:14:46.335Z,78.62
2023-05-07T04:17:13.832Z,78.05
2023-05-07T04:19:41.031Z,78.33
2023-05-07T04:22:07.977Z,78.50
2023-05-07T04:24:34.935Z,78.41
2023-05-07T04:27:03.203Z,78.46
2023-05-07T04:29:30.595Z,78.52
2023-05-07T04:31:57.806Z,78.60
2023-05-07T04:34:27.383Z,78.21
2023-05-07T04:36:54.573Z,78.48
2023-05-07T04:39:21.565Z,78.71
2023-05-07T04:41:50.166Z,78.35
2023-05-07T04:44:18.300Z,78.50
2023-05-07T04:46:45.952Z,78.32
2023-05-07T04:49:12.841Z,78.54
2023-05-07T04:51:40.330Z,78.40
2023-05-07T04:54:07.430Z,78.18
2023-05-07T04:56:34.407Z,78.46
2023-05-07T04:59:02.370Z,78.09
2023-05-07T05:01:30.094Z,77.96
2023-05-07T05:03:57.692Z,78.15
2023-05-07T05:06:24.894Z,77.89
2023-05-07T05:08:53.317Z,78.16
2023-05-07T05:11:21.162Z,77.93
2023-05-07T05:13:50.671Z,77.88
2023-05-07T05:16:20.599Z,77.70
2023-05-07T05:18:48.590Z,77.85
2023-05-07T05:21:18.805Z,77.59
2023-05-07T05:23:48.681Z,77.85
2023-05-07T05:26:19.912Z,77.74
2023-05-07T05:28:46.778Z,77.75
2023-05-07T05:31:15.612Z,77.49
2023-05-07T05:33:42.947Z,77.55
2023-05-07T05:36:14.409Z,76.78
2023-05-07T05:38:42.115Z,76.83
2023-05-07T05:41:11.983Z,76.83
2023-05-07T05:43:39.247Z,76.67
2023-05-07T05:46:06.352Z,76.36
2023-05-07T05:48:33.708Z,76.30
2023-05-07T05:51:02.314Z,76.42
2023-05-07T05:53:29.738Z,76.11
2023-05-07T05:55:56.884Z,75.72
2023-05-07T05:58:23.797Z,75.71
2023-05-07T06:00:57.846Z,75.65
2023-05-07T06:03:26.642Z,75.55
2023-05-07T06:05:55.029Z,75.33
2023-05-07T06:08:23.037Z,75.40
2023-05-07T06:10:51.227Z,75.25
2023-05-07T06:13:18.979Z,75.05
2023-05-07T06:15:46.988Z,74.91
2023-05-07T06:18:14.683Z,74.92
2023-05-07T06:20:42.666Z,74.80
2023-05-07T06:23:17.886Z,75.09
2023-05-07T06:25:51.681Z,74.92
2023-05-07T06:28:20.843Z,74.64
2023-05-07T06:30:48.561Z,74.45
2023-05-07T06:33:17.389Z,74.36
2023-05-07T06:35:44.304Z,74.39
2023-05-07T06:38:11.866Z,74.58
2023-05-07T06:40:39.619Z,74.39
2023-05-07T06:43:06.786Z,74.46
2023-05-07T06:45:47.341Z,74.34
2023-05-07T06:48:14.825Z,74.08
2023-05-07T06:50:51.318Z,74.07
2023-05-07T06:53:19.396Z,74.23
2023-05-07T06:55:46.441Z,73.89
2023-05-07T06:58:14.879Z,73.76
2023-05-07T07:00:42.317Z,73.48
2023-05-07T07:03:09.444Z,73.59
2023-05-07T07:05:36.785Z,73.78
2023-05-07T07:08:04.600Z,73.60
2023-05-07T07:10:31.517Z,73.47
2023-05-07T07:12:58.540Z,73.37
2023-05-07T07:15:26.389Z,73.30
2023-05-07T07:17:55.292Z,72.97
2023-05-07T07:20:23.363Z,73.18
2023-05-07T07:22:50.516Z,73.31
2023-05-07T07:25:18.320Z,72.95
2023-05-07T07:27:46.280Z,73.01
2023-05-07T07:30:14.874Z,72.68
2023-05-07T07:32:45.987Z,72.35
2023-05-07T07:35:12.874Z,72.28
2023-05-07T07:37:40.150Z,72.00
2023-05-07T07:40:08.097Z,71.76
2023-05-07T07:42:35.578Z,71.40
2023-05-07T07:45:02.791Z,71.15
2023-05-07T07:47:33.761Z,70.71
2023-05-07T07:50:00.777Z,70.43
2023-05-07T07:52:29.342Z,70.13
2023-05-07T07:54:56.327Z,70.10
2023-05-07T07:57:23.916Z,69.69
2023-05-07T07:59:51.826Z,69.34
2023-05-07T08:02:21.420Z,69.13
2023-05-07T08:04:50.301Z,68.97
2023-05-07T08:07:19.960Z,68.91
2023-05-07T08:09:48.759Z,68.59
2023-05-07T08:12:18.275Z,68.51
2023-05-07T08:14:45.305Z,68.53
2023-05-07T08:17:12.362Z,68.48
2023-05-07T08:19:39.325Z,68.46
2023-05-07T08:22:10.673Z,68.63
2023-05-07T08:24:37.959Z,68.42
2023-05-07T08:27:04.894Z,68.35
2023-05-07T08:29:32.477Z,68.17
2023-05-07T08:32:01.670Z,67.83
2023-05-07T08:34:28.656Z,67.78
2023-05-07T08:36:58.238Z,67.68
2023-05-07T08:39:26.143Z,67.33
2023-05-07T08:41:58.286Z,67.54
2023-05-07T08:44:31.349Z,67.23
2023-05-07T08:46:59.709Z,67.40
2023-05-07T08:49:27.320Z,66.95
2023-05-07T08:51:55.898Z,67.04
2023-05-07T08:54:24.356Z,67.09
2023-05-07T08:56:51.640Z,66.47
2023-05-07T08:59:19.661Z,66.18
2023-05-07T09:01:46.936Z,65.78
2023-05-07T09:04:14.843Z,65.26
2023-05-07T09:06:43.314Z,65.56
2023-05-07T09:09:15.821Z,65.49
2023-05-07T09:11:42.945Z,65.15
2023-05-07T09:14:10.595Z,64.70
2023-05-07T09:16:41.151Z,64.94
2023-05-07T09:19:09.084Z,65.44
2023-05-07T09:21:37.009Z,65.33
2023-05-07T09:24:07.567Z,65.32
2023-05-07T09:26:38.970Z,64.84
2023-05-07T09:29:07.505Z,65.00
2023-05-07T09:31:41.146Z,64.64
2023-05-07T09:34:10.639Z,64.46
2023-05-07T09:36:40.715Z,64.42
2023-05-07T09:39:07.637Z,64.45
2023-05-07T09:41:44.765Z,64.23
2023-05-07T09:44:18.010Z,63.99
2023-05-07T09:46:55.185Z,63.77
2023-05-07T09:49:31.153Z,63.86
2023-05-07T09:52:07.527Z,63.56
2023-05-07T09:54:39.044Z,63.81
2023-05-07T09:57:08.255Z,63.80
2023-05-07T09:59:36.054Z,63.24
2023-05-07T10:02:07.326Z,63.50
2023-05-07T10:04:41.710Z,63.49
2023-05-07T10:07:10.246Z,63.19
2023-05-07T10:09:39.908Z,63.17
2023-05-07T10:12:11.415Z,62.96
2023-05-07T10:14:38.481Z,62.59
2023-05-07T10:17:07.284Z,62.34
2023-05-07T10:19:34.347Z,62.77
2023-05-07T10:22:04.801Z,62.57
2023-05-07T10:24:38.728Z,62.45
2023-05-07T10:27:13.108Z,61.86
2023-05-07T10:30:00.774Z,61.41
2023-05-07T10:32:44.202Z,61.37
2023-05-07T10:35:28.552Z,61.21
2023-05-07T10:37:55.624Z,60.81
2023-05-07T10:40:25.745Z,60.53
2023-05-07T10:42:58.679Z,59.99
2023-05-07T10:45:26.896Z,59.69
2023-05-07T10:48:28.021Z,59.84
2023-05-07T10:51:21.106Z,59.61
2023-05-07T10:53:49.279Z,59.45
2023-05-07T10:56:21.510Z,58.68
2023-05-07T10:59:31.933Z,58.37
2023-05-07T11:02:05.604Z,58.28
2023-05-07T11:04:45.956Z,58.04
2023-05-07T11:07:29.146Z,58.03
2023-05-07T11:10:13.536Z,57.61
2023-05-07T11:12:54.091Z,57.64
2023-05-07T11:15:44.449Z,57.79
2023-05-07T11:18:21.799Z,58.10
2023-05-07T11:20:52.836Z,58.09
2023-05-07T11:23:34.387Z,58.41
2023-05-07T11:26:12.633Z,58.16
2023-05-07T11:28:42.401Z,57.99
2023-05-07T11:31:10.571Z,57.57
2023-05-07T11:33:38.875Z,57.92
2023-05-07T11:36:09.689Z,56.83
2023-05-07T11:38:42.082Z,56.11
2023-05-07T11:41:09.514Z,55.67
2023-05-07T11:43:37.269Z,54.75
2023-05-07T11:46:11.714Z,54.34
2023-05-07T11:48:39.660Z,54.61
2023-05-07T11:51:10.044Z,54.09
2023-05-07T11:53:39.088Z,54.19
2023-05-07T11:56:14.359Z,53.81
2023-05-07T11:58:42.829Z,53.85
2023-05-07T12:01:11.731Z,53.60
2023-05-07T12:03:43.951Z,53.15
2023-05-07T12:06:13.830Z,52.82
2023-05-07T12:08:42.495Z,52.94
2023-05-07T12:11:12.613Z,52.99
2023-05-07T12:13:39.696Z,52.81
2023-05-07T12:16:07.496Z,52.73
2023-05-07T12:18:35.873Z,52.84
2023-05-07T12:21:03.144Z,53.03
2023-05-07T12:23:35.939Z,52.56
2023-05-07T12:26:06.442Z,51.84
2023-05-07T12:28:41.030Z,52.29
2023-05-07T12:31:08.746Z,52.33
2023-05-07T12:33:36.500Z,51.55
2023-05-07T12:36:08.643Z,50.90
2023-05-07T12:38:38.197Z,50.47
2023-05-07T12:41:08.372Z,50.71
2023-05-07T12:43:35.670Z,51.11
2023-05-07T12:46:05.469Z,50.66
2023-05-07T12:48:33.574Z,50.61
2023-05-07T12:51:02.401Z,50.25
2023-05-07T12:53:30.686Z,49.97
2023-05-07T12:55:59.315Z,50.17
2023-05-07T12:58:29.069Z,50.09
2023-05-07T13:01:00.804Z,49.70
2023-05-07T13:03:29.452Z,49.73
2023-05-07T13:05:59.262Z,48.74
2023-05-07T13:08:27.413Z,48.43
2023-05-07T13:10:55.882Z,48.19
2023-05-07T13:13:23.114Z,47.64
2023-05-07T13:15:50.256Z,47.08
2023-05-07T13:18:17.426Z,47.49
2023-05-07T13:20:44.663Z,47.08
2023-05-07T13:23:11.560Z,46.82
2023-05-07T13:25:39.281Z,46.50
2023-05-07T13:28:10.764Z,46.15
2023-05-07T13:30:38.709Z,45.74
2023-05-07T13:33:05.742Z,45.60
2023-05-07T13:35:32.627Z,44.74
2023-05-07T13:37:59.662Z,44.96
2023-05-07T13:40:26.805Z,44.92
2023-05-07T13:42:54.592Z,44.72
2023-05-07T13:45:21.859Z,45.11
2023-05-07T13:47:50.762Z,45.25
2023-05-07T13:50:18.078Z,45.57
2023-05-07T13:52:51.995Z,46.16
2023-05-07T13:55:19.912Z,46.56
2023-05-07T13:57:47.621Z,46.58
2023-05-07T14:00:15.710Z,46.90
2023-05-07T14:02:42.762Z,46.85
2023-05-07T14:05:10.965Z,46.89
2023-05-07T14:07:37.985Z,45.85
2023-05-07T14:10:05.188Z,44.24
2023-05-07T14:12:33.388Z,43.52
2023-05-07T14:15:00.915Z,42.74
2023-05-07T14:17:28.353Z,42.13
2023-05-07T14:19:56.182Z,41.81
2023-05-07T14:22:23.896Z,41.52
2023-05-07T14:25:14.307Z,41.17
2023-05-07T14:27:38.434Z,41.07
2023-05-07T14:30:06.725Z,40.48
2023-05-07T14:32:34.756Z,40.07
2023-05-07T14:35:01.877Z,39.74
2023-05-07T14:37:29.489Z,39.94
2023-05-07T14:39:56.734Z,40.16
2023-05-07T14:42:23.530Z,40.32
2023-05-07T14:44:51.364Z,40.75
2023-05-07T14:47:19.939Z,40.99
2023-05-07T14:49:47.097Z,39.66
2023-05-07T14:52:13.990Z,40.15
2023-05-07T14:54:41.158Z,40.53
2023-05-07T14:57:10.825Z,41.80
2023-05-07T14:59:38.990Z,42.17
2023-05-07T15:02:09.229Z,42.46
2023-05-07T15:04:39.984Z,42.63
2023-05-07T15:07:06.872Z,41.94
2023-05-07T15:09:33.798Z,40.82
2023-05-07T15:12:01.491Z,39.98
2023-05-07T15:14:28.480Z,39.29
2023-05-07T15:16:55.285Z,38.86
2023-05-07T15:19:23.660Z,38.12
2023-05-07T15:21:50.542Z,37.18
2023-05-07T15:24:17.447Z,36.92
2023-05-07T15:26:44.317Z,38.48
2023-05-07T15:29:11.526Z,39.94
2023-05-07T15:31:40.241Z,40.84
2023-05-07T15:34:07.585Z,41.03
2023-05-07T15:36:34.617Z,41.43
2023-05-07T15:39:03.989Z,41.93
2023-05-07T15:41:31.754Z,42.67
2023-05-07T15:43:58.615Z,43.38
2023-05-07T15:46:26.371Z,44.29
2023-05-07T15:48:54.293Z,44.83
2023-05-07T15:51:21.483Z,43.92
2023-05-07T15:53:48.944Z,42.95
2023-05-07T15:56:16.123Z,42.63
2023-05-07T15:58:42.969Z,42.34
2023-05-07T16:01:09.869Z,42.63
2023-05-07T16:03:37.788Z,42.88
2023-05-07T16:06:08.369Z,42.70
2023-05-07T16:08:40.526Z,42.24
2023-05-07T16:11:07.807Z,41.95
2023-05-07T16:13:35.677Z,42.48
2023-05-07T16:16:03.139Z,43.04
2023-05-07T16:18:30.521Z,43.43
2023-05-07T16:20:58.386Z,44.08
2023-05-07T16:23:26.225Z,44.00
2023-05-07T16:25:53.616Z,44.45
2023-05-07T16:28:21.561Z,44.89
2023-05-07T16:30:49.452Z,45.22
2023-05-07T16:33:17.043Z,45.39
2023-05-07T16:35:47.809Z,45.04
2023-05-07T16:38:16.137Z,45.18
2023-05-07T16:40:43.153Z,45.18
2023-05-07T16:43:10.266Z,45.37
2023-05-07T16:45:37.315Z,44.61
2023-05-07T16:48:05.135Z,43.52
2023-05-07T16:50:32.148Z,42.56
2023-05-07T16:52:59.056Z,42.40
2023-05-07T16:55:25.997Z,41.99
2023-05-07T16:57:54.221Z,41.54
2023-05-07T17:00:21.297Z,41.21
2023-05-07T17:02:49.227Z,41.23
2023-05-07T17:05:16.311Z,41.79
2023-05-07T17:07:43.369Z,42.29
2023-05-07T17:10:10.577Z,43.07
2023-05-07T17:12:38.262Z,44.33
2023-05-07T17:15:06.397Z,44.75
2023-05-07T17:17:33.994Z,45.90
2023-05-07T17:20:02.664Z,46.12
2023-05-07T17:22:29.730Z,45.91
2023-05-07T17:24:58.260Z,45.52
2023-05-07T17:27:25.204Z,45.41
2023-05-07T17:29:52.508Z,45.20
2023-05-07T17:32:20.917Z,44.75
2023-05-07T17:34:47.992Z,44.82
2023-05-07T17:37:15.323Z,44.65
2023-05-07T17:39:42.524Z,44.82
2023-05-07T17:42:09.834Z,44.52
2023-05-07T17:44:37.057Z,44.37
2023-05-07T17:47:04.794Z,44.36
2023-05-07T17:49:31.943Z,44.30
2023-05-07T17:51:58.853Z,44.33
2023-05-07T17:54:27.322Z,44.24
2023-05-07T17:56:54.866Z,44.50
2023-05-07T17:59:21.829Z,44.56
2023-05-07T18:01:49.257Z,44.24
2023-05-07T18:04:16.982Z,44.44
2023-05-07T18:06:44.068Z,44.87
2023-05-07T18:09:12.522Z,44.80
2023-05-07T18:11:39.752Z,45.08
2023-05-07T18:14:06.745Z,45.70
2023-05-07T18:16:34.578Z,45.63
2023-05-07T18:19:02.809Z,46.07
2023-05-07T18:21:30.638Z,46.32
2023-05-07T18:23:58.231Z,46.67
2023-05-07T18:26:25.839Z,47.14
2023-05-07T18:28:54.076Z,47.38
2023-05-07T18:31:22.100Z,48.05
2023-05-07T18:33:53.693Z,48.80
2023-05-07T18:36:21.539Z,49.21
2023-05-07T18:38:49.034Z,49.20
2023-05-07T18:41:17.490Z,49.83
2023-05-07T18:43:44.396Z,50.52
2023-05-07T18:46:11.333Z,50.71
2023-05-07T18:48:38.274Z,51.28
2023-05-07T18:51:08.695Z,51.45
2023-05-07T18:53:37.079Z,51.86
2023-05-07T18:56:04.089Z,52.27
2023-05-07T18:58:30.904Z,52.36
2023-05-07T19:00:57.896Z,52.66
2023-05-07T19:03:24.920Z,53.00
2023-05-07T19:05:51.907Z,53.39
2023-05-07T19:08:19.001Z,53.69
2023-05-07T19:10:45.982Z,54.13
2023-05-07T19:13:12.919Z,53.99
2023-05-07T19:15:40.589Z,54.16
2023-05-07T19:18:08.263Z,54.09
2023-05-07T19:20:35.263Z,54.16
2023-05-07T19:23:02.337Z,54.19
2023-05-07T19:25:29.287Z,54.13
2023-05-07T19:27:57.413Z,54.30
2023-05-07T19:30:24.941Z,54.57
2023-05-07T19:32:52.335Z,54.31
2023-05-07T19:35:19.501Z,54.57
2023-05-07T19:37:46.645Z,54.50
2023-05-07T19:40:15.182Z,54.43
2023-05-07T19:42:42.194Z,54.58
2023-05-07T19:45:09.650Z,54.55
2023-05-07T19:47:36.902Z,54.91
2023-05-07T19:50:04.064Z,54.70
2023-05-07T19:52:30.997Z,55.00
2023-05-07T19:54:58.191Z,55.19
2023-05-07T19:57:25.152Z,55.14
2023-05-07T19:59:52.114Z,54.94
2023-05-07T20:02:19.453Z,55.06
2023-05-07T20:04:46.832Z,55.35
2023-05-07T20:07:13.918Z,55.73
2023-05-07T20:09:40.974Z,55.84
2023-05-07T20:12:10.756Z,56.04
2023-05-07T20:14:37.931Z,55.90
2023-05-07T20:17:05.119Z,56.05
2023-05-07T20:19:32.093Z,56.54
2023-05-07T20:21:59.159Z,56.83
2023-05-07T20:24:26.185Z,56.96
2023-05-07T20:26:53.153Z,56.80
2023-05-07T20:29:20.037Z,57.25
2023-05-07T20:31:47.046Z,57.28
2023-05-07T20:34:14.251Z,57.81
2023-05-07T20:36:41.844Z,57.75
2023-05-07T20:39:09.830Z,57.85
2023-05-07T20:41:38.289Z,57.91
2023-05-07T20:44:05.456Z,57.91
2023-05-07T20:46:32.512Z,58.32
2023-05-07T20:48:59.423Z,58.35
2023-05-07T20:51:27.442Z,58.16
2023-05-07T20:53:54.742Z,58.55
2023-05-07T20:56:25.058Z,58.51
2023-05-07T20:58:51.995Z,58.94
2023-05-07T21:01:19.008Z,59.44
2023-05-07T21:03:46.082Z,59.22
2023-05-07T21:06:12.893Z,59.37
2023-05-07T21:08:39.875Z,59.82
2023-05-07T21:11:06.935Z,59.50
2023-05-07T21:13:34.278Z,59.83
2023-05-07T21:16:01.404Z,59.84
2023-05-07T21:18:29.985Z,59.93
2023-05-07T21:20:57.460Z,60.21
2023-05-07T21:23:24.750Z,60.34
2023-05-07T21:25:52.123Z,60.19
2023-05-07T21:28:19.112Z,60.57
2023-05-07T21:30:47.615Z,60.96
2023-05-07T21:33:14.573Z,60.65
2023-05-07T21:35:41.795Z,61.02
2023-05-07T21:38:09.193Z,61.55
2023-05-07T21:40:37.009Z,61.42
2023-05-07T21:43:05.502Z,61.72
2023-05-07T21:45:32.366Z,61.86
2023-05-07T21:47:59.619Z,62.22
2023-05-07T21:50:27.211Z,62.21
2023-05-07T21:52:54.182Z,62.23
2023-05-07T21:55:21.320Z,62.22
2023-05-07T21:58:01.141Z,62.40
2023-05-07T22:00:32.181Z,62.88
2023-05-07T22:02:59.157Z,62.65
2023-05-07T22:05:26.134Z,62.90
2023-05-07T22:07:53.033Z,62.80
2023-05-07T22:10:23.182Z,62.99
2023-05-07T22:12:50.875Z,63.24
2023-05-07T22:15:18.016Z,63.38
2023-05-07T22:17:46.412Z,63.18
2023-05-07T22:20:13.599Z,63.74
2023-05-07T22:22:52.706Z,63.59
2023-05-07T22:25:24.081Z,63.66
2023-05-07T22:27:51.295Z,63.90
2023-05-07T22:30:18.830Z,63.77
2023-05-07T22:32:45.992Z,64.06
2023-05-07T22:35:12.982Z,64.20
2023-05-07T22:37:39.926Z,63.93
2023-05-07T22:40:07.694Z,64.25
2023-05-07T22:42:34.916Z,64.39
2023-05-07T22:45:01.850Z,64.65
2023-05-07T22:47:31.159Z,64.47
2023-05-07T22:49:58.497Z,64.43
2023-05-07T22:52:25.407Z,64.52
2023-05-07T22:54:54.199Z,64.78
2023-05-07T22:57:22.823Z,64.94
2023-05-07T22:59:54.913Z,64.83
2023-05-07T23:02:22.169Z,64.70
2023-05-07T23:04:49.132Z,65.12
2023-05-07T23:07:16.057Z,65.13
2023-05-07T23:09:43.294Z,65.22
2023-05-07T23:12:10.596Z,65.25
2023-05-07T23:14:38.123Z,65.47
2023-05-07T23:17:05.318Z,65.34
2023-05-07T23:19:32.316Z,65.78
2023-05-07T23:21:59.366Z,65.31
2023-05-07T23:24:26.663Z,65.76
2023-05-07T23:26:53.758Z,65.76
2023-05-07T23:29:21.243Z,65.92
2023-05-07T23:31:48.121Z,65.76
2023-05-07T23:34:24.238Z,65.86
2023-05-07T23:36:51.783Z,66.10
2023-05-07T23:39:19.277Z,66.00
2023-05-07T23:41:47.023Z,66.10
2023-05-07T23:44:13.931Z,66.00
2023-05-07T23:46:40.829Z,66.28
2023-05-07T23:49:07.816Z,66.15
2023-05-07T23:51:35.507Z,66.36
2023-05-07T23:54:02.715Z,66.35
2023-05-07T23:56:29.644Z,66.15
2023-05-07T23:58:56.770Z,66.35
